Oyama, Canada
Current Conditions -  °F | °C
As of 10:02 PM on Saturday 25 Oct 2014 (Local Time) from CYLW Reporting Station
Light Rain Light Rain  
Wind Chill: 46°   Ceiling: 5500
Heat Index: 48°   Visibility: 9mi
Dew Point: 43°   Wind: 6mph
Humidity: 82%   Direction: 20°NNE
Pressure: 29.37"   Gusts: NA
Location:  50.11°N, 119.37°W
Report Text: CYLW 260502Z AUTO 02005KT 9SM -RA OVC055 09/06 A2937 RMK SLP953 DENSITY ALT 1600FT
Loading
Personal Weather Stations






























Interactive Weather Map
Tropical Storm Tracking
New forecast layout! Learn more

10-Day Weather Forecast

Advertisements
Track Severe Weather on mobile